Time;durP1;ratioP1;P1;durP2;ratioP2;P2;SDS_P1;SDS_P2;PMS_P1;PMS_P2;Temp;Humidity;BMP_temperature;BMP_pressure;BME280_temperature;BME280_humidity;BME280_pressure;Samples;Min_cycle;Max_cycle;Signal;HPM_P1;HPM_P2
2021/06/02 00:01:56;;;;;;;1.30;1.20;;;25.50;56.60;;;;;;5122841;28;20083;-37
2021/06/02 00:04:26;;;;;;;1.83;1.42;;;25.50;56.50;;;;;;5112905;28;20067;-37
2021/06/02 00:06:57;;;;;;;1.55;1.45;;;25.50;56.40;;;;;;5103517;28;20024;-38
2021/06/02 00:09:23;;;;;;;2.20;1.40;;;25.50;56.50;;;;;;5102899;28;20101;-37
2021/06/02 00:11:50;;;;;;;1.42;1.33;;;25.50;56.60;;;;;;5114266;28;20034;-37
2021/06/02 00:14:19;;;;;;;;;;;25.50;55.90;;;;;;5124291;28;20044;-37
2021/06/02 00:16:45;;;;;;;1.20;1.10;;;25.50;55.80;;;;;;5123950;28;19998;-37
2021/06/02 00:19:12;;;;;;;1.42;1.20;;;25.50;56.10;;;;;;5124621;28;20043;-37
2021/06/02 00:21:38;;;;;;;1.45;1.33;;;25.50;56.20;;;;;;5123360;28;20052;-37
2021/06/02 00:24:05;;;;;;;1.55;1.45;;;25.50;56.60;;;;;;5123450;28;20090;-37
2021/06/02 00:26:33;;;;;;;3.42;1.45;;;25.50;56.50;;;;;;5123512;28;20118;-37
2021/06/02 00:29:03;;;;;;;1.30;1.13;;;25.40;56.50;;;;;;5123489;28;20365;-37
2021/06/02 00:31:30;;;;;;;1.20;1.10;;;25.40;56.50;;;;;;5123596;28;20027;-37
2021/06/02 00:33:57;;;;;;;1.15;1.05;;;25.40;56.70;;;;;;5121881;28;20031;-37
2021/06/02 00:36:23;;;;;;;2.13;1.27;;;25.40;56.80;;;;;;5122068;28;20073;-37
2021/06/02 00:38:51;;;;;;;1.40;1.30;;;25.40;56.80;;;;;;5123292;28;20032;-38
2021/06/02 00:41:17;;;;;;;;;;;25.40;56.80;;;;;;5139586;27;20062;-37
2021/06/02 00:43:43;;;;;;;1.48;1.30;;;25.40;56.90;;;;;;5123583;28;20562;-37
2021/06/02 00:46:10;;;;;;;1.23;1.10;;;25.40;56.90;;;;;;5122394;28;20380;-38
2021/06/02 00:48:37;;;;;;;1.20;1.10;;;25.40;56.90;;;;;;5123443;28;20096;-37
2021/06/02 00:51:04;;;;;;;1.20;1.10;;;25.30;56.90;;;;;;5106997;28;20069;-37
2021/06/02 00:53:30;;;;;;;1.47;1.27;;;25.30;56.90;;;;;;5102846;28;20024;-37
2021/06/02 00:56:02;;;;;;;1.55;1.40;;;25.30;56.90;;;;;;5114960;28;20268;-37
2021/06/02 00:58:29;;;;;;;1.50;1.40;;;25.30;56.90;;;;;;5123079;28;20047;-38
2021/06/02 01:00:56;;;;;;;1.33;1.23;;;25.30;56.90;;;;;;5122814;28;20407;-37
2021/06/02 01:03:23;;;;;;;1.55;1.13;;;25.30;56.90;;;;;;5104329;28;20027;-38
2021/06/02 01:05:51;;;;;;;1.15;1.05;;;25.30;56.80;;;;;;5122920;28;20103;-37
2021/06/02 01:08:20;;;;;;;1.10;1.00;;;25.30;57.00;;;;;;5108719;28;20092;-37
2021/06/02 01:10:47;;;;;;;2.13;1.15;;;25.20;56.90;;;;;;5139994;27;20019;-37
2021/06/02 01:13:14;;;;;;;1.30;1.20;;;25.30;56.70;;;;;;5123379;28;20043;-37
2021/06/02 01:15:40;;;;;;;1.52;1.10;;;25.20;56.80;;;;;;5121601;28;20039;-37
2021/06/02 01:18:08;;;;;;;1.20;1.00;;;25.20;56.70;;;;;;5122785;28;20056;-37
2021/06/02 01:20:37;;;;;;;3.20;1.27;;;25.20;57.00;;;;;;5122057;28;20122;-37
2021/06/02 01:23:04;;;;;;;1.50;1.30;;;25.20;57.20;;;;;;5126993;28;20039;-37
2021/06/02 01:25:30;;;;;;;;;;;25.20;57.30;;;;;;5127799;28;20050;-37
2021/06/02 01:27:56;;;;;;;3.45;1.20;;;25.20;57.30;;;;;;5125926;28;19908;-37
2021/06/02 01:30:23;;;;;;;2.50;1.25;;;25.20;57.20;;;;;;5126871;27;20047;-38
2021/06/02 01:33:31;;;;;;;2.10;1.40;;;25.20;57.10;;;;;;5127025;28;20571;-38
2021/06/02 01:36:09;;;;;;;1.88;1.30;;;25.20;57.30;;;;;;5095447;28;20043;-37
2021/06/02 01:39:06;;;;;;;2.67;1.33;;;25.10;57.20;;;;;;5106308;28;20580;-37
2021/06/02 01:41:41;;;;;;;1.20;1.10;;;25.10;57.20;;;;;;5105904;28;20082;-37
2021/06/02 01:44:37;;;;;;;2.03;1.35;;;25.10;57.10;;;;;;5123142;28;20043;-37
2021/06/02 01:47:32;;;;;;;1.10;1.00;;;25.10;57.10;;;;;;5126918;28;20093;-38
2021/06/02 01:50:34;;;;;;;1.20;1.10;;;25.10;57.00;;;;;;5126318;28;20048;-37
2021/06/02 01:53:44;;;;;;;1.20;1.10;;;25.10;57.00;;;;;;5126572;28;20023;-37
2021/06/02 01:56:38;;;;;;;1.40;1.27;;;25.00;56.70;;;;;;5111554;28;20560;-38
2021/06/02 01:59:32;;;;;;;1.17;1.08;;;25.00;56.80;;;;;;5126477;28;20055;-37
2021/06/02 02:02:35;;;;;;;1.40;1.17;;;25.00;56.60;;;;;;5125572;28;20032;-37
2021/06/02 02:05:07;;;;;;;1.40;1.30;;;25.00;56.70;;;;;;5125992;27;20051;-37
2021/06/02 02:07:42;;;;;;;2.88;1.35;;;25.00;56.60;;;;;;5124793;28;20031;-38
2021/06/02 02:10:34;;;;;;;2.58;1.42;;;25.00;56.70;;;;;;5126122;28;20080;-38
2021/06/02 02:13:26;;;;;;;1.42;1.33;;;25.00;56.60;;;;;;5126044;28;20051;-37
2021/06/02 02:16:29;;;;;;;1.40;1.30;;;24.90;56.50;;;;;;5114899;28;20039;-37
2021/06/02 02:19:13;;;;;;;1.50;1.25;;;24.90;56.70;;;;;;5126077;28;20042;-37
2021/06/02 02:22:02;;;;;;;1.30;1.20;;;24.90;56.80;;;;;;5120390;28;20043;-38
2021/06/02 02:24:54;;;;;;;1.50;1.40;;;24.90;56.90;;;;;;5152701;27;20079;-38
2021/06/02 02:27:39;;;;;;;1.20;1.10;;;24.80;56.70;;;;;;5124621;28;20081;-37
2021/06/02 02:30:06;;;;;;;1.55;1.40;;;24.80;56.80;;;;;;5125872;28;20106;-38
2021/06/02 02:32:52;;;;;;;2.28;1.45;;;24.80;56.90;;;;;;5124701;28;20039;-37
2021/06/02 02:35:45;;;;;;;1.35;1.20;;;24.80;56.80;;;;;;5125584;28;20039;-38
2021/06/02 02:38:17;;;;;;;1.60;1.30;;;24.80;57.40;;;;;;5120834;28;20111;-38
2021/06/02 02:40:50;;;;;;;1.30;1.20;;;24.80;56.70;;;;;;5104930;28;20032;-38
2021/06/02 02:43:42;;;;;;;1.23;1.20;;;24.70;56.70;;;;;;5120952;28;20039;-37
2021/06/02 02:46:44;;;;;;;2.47;1.50;;;24.70;56.70;;;;;;5118428;28;20024;-38
2021/06/02 02:49:31;;;;;;;1.55;1.30;;;24.70;56.60;;;;;;5105219;28;20036;-37
2021/06/02 02:52:15;;;;;;;1.40;1.30;;;24.70;56.50;;;;;;5133012;27;20046;-37
2021/06/02 02:54:58;;;;;;;1.27;1.17;;;24.70;56.70;;;;;;5119405;28;20354;-37
2021/06/02 02:57:55;;;;;;;1.40;1.30;;;24.60;56.60;;;;;;5118309;28;20421;-37
2021/06/02 03:00:34;;;;;;;1.40;1.30;;;24.60;56.70;;;;;;5138617;27;20096;-37
2021/06/02 03:03:00;;;;;;;1.63;1.38;;;24.60;56.60;;;;;;5125055;28;20059;-38
2021/06/02 03:05:34;;;;;;;1.30;1.20;;;24.60;56.60;;;;;;5124871;28;20051;-37
2021/06/02 03:08:23;;;;;;;1.23;1.13;;;24.60;56.70;;;;;;5123803;28;20031;-37
2021/06/02 03:10:57;;;;;;;1.67;1.30;;;24.50;56.60;;;;;;5124036;28;20030;-38
2021/06/02 03:13:34;;;;;;;1.42;1.30;;;24.50;56.70;;;;;;5123605;28;20035;-38
2021/06/02 03:16:02;;;;;;;1.25;1.15;;;24.50;56.70;;;;;;5124969;28;20031;-37
2021/06/02 03:18:32;;;;;;;1.63;1.30;;;24.50;56.70;;;;;;5123467;28;20073;-37
2021/06/02 03:21:06;;;;;;;1.40;1.30;;;24.50;56.70;;;;;;5124837;28;20035;-38
2021/06/02 03:24:04;;;;;;;1.35;1.23;;;24.50;56.90;;;;;;5123162;28;20031;-37
2021/06/02 03:26:33;;;;;;;1.30;1.20;;;24.50;56.80;;;;;;5123513;28;20023;-38
2021/06/02 03:29:14;;;;;;;1.58;1.20;;;24.40;56.80;;;;;;5104203;28;20063;-37
2021/06/02 03:32:18;;;;;;;1.58;1.48;;;24.40;56.80;;;;;;5103995;28;20361;-37
2021/06/02 03:35:04;;;;;;;1.48;1.38;;;24.40;56.80;;;;;;5115396;28;20032;-38
2021/06/02 03:37:30;;;;;;;1.33;1.23;;;24.40;56.90;;;;;;5118532;27;20035;-37
2021/06/02 03:40:14;;;;;;;1.23;1.15;;;24.30;56.80;;;;;;5107976;28;20043;-38
2021/06/02 03:42:49;;;;;;;1.58;1.05;;;24.30;56.80;;;;;;5122760;28;20695;-37
2021/06/02 03:45:20;;;;;;;2.10;1.30;;;24.30;56.90;;;;;;5122994;28;20070;-38
2021/06/02 03:48:10;;;;;;;1.80;1.50;;;24.30;56.90;;;;;;5124209;28;20777;-37
2021/06/02 03:51:07;;;;;;;1.50;1.40;;;24.30;56.80;;;;;;5123935;28;20037;-38
2021/06/02 03:54:01;;;;;;;1.92;1.30;;;24.30;56.90;;;;;;5136971;27;20026;-37
2021/06/02 03:57:04;;;;;;;1.20;1.10;;;24.20;56.90;;;;;;5123538;28;20027;-38
2021/06/02 03:59:45;;;;;;;2.03;1.20;;;24.20;56.80;;;;;;5123779;28;20028;-37
2021/06/02 04:02:18;;;;;;;1.40;1.30;;;24.20;56.90;;;;;;5123785;28;20023;-37
2021/06/02 04:05:06;;;;;;;1.50;1.40;;;24.20;56.90;;;;;;5123841;28;20147;-38
2021/06/02 04:07:59;;;;;;;1.60;1.37;;;24.10;56.90;;;;;;5123939;28;20034;-38
2021/06/02 04:10:34;;;;;;;1.30;1.20;;;24.10;57.00;;;;;;5123853;27;20027;-37
2021/06/02 04:13:04;;;;;;;1.75;1.50;;;24.10;57.00;;;;;;5122191;28;20110;-37
2021/06/02 04:15:30;;;;;;;1.30;1.20;;;24.10;57.00;;;;;;5119924;28;20024;-37
2021/06/02 04:17:56;;;;;;;1.47;1.33;;;24.10;57.00;;;;;;5136163;27;20043;-37
2021/06/02 04:20:22;;;;;;;1.27;1.17;;;24.10;57.10;;;;;;5113411;28;20023;-37
2021/06/02 04:22:49;;;;;;;2.72;1.38;;;24.00;57.10;;;;;;5123114;28;20623;-38
2021/06/02 04:25:16;;;;;;;1.30;1.20;;;24.00;57.10;;;;;;5122586;28;20059;-37
2021/06/02 04:27:46;;;;;;;1.60;1.50;;;24.00;57.10;;;;;;5123716;28;20063;-37
2021/06/02 04:30:14;;;;;;;1.30;1.20;;;24.00;57.10;;;;;;5123329;28;20510;-37
2021/06/02 04:32:42;;;;;;;1.60;1.30;;;24.00;57.20;;;;;;5123049;28;20024;-37
2021/06/02 04:35:11;;;;;;;1.65;1.30;;;24.00;57.10;;;;;;5123399;28;20043;-38
2021/06/02 04:37:37;;;;;;;1.50;1.40;;;24.00;57.20;;;;;;5123450;28;20071;-38
2021/06/02 04:40:05;;;;;;;1.20;1.10;;;24.00;57.20;;;;;;5123022;28;20496;-37
2021/06/02 04:42:34;;;;;;;4.35;1.60;;;23.90;57.70;;;;;;5123110;28;20035;-38
2021/06/02 04:45:01;;;;;;;1.95;1.50;;;23.90;57.20;;;;;;5123342;28;20090;-38
2021/06/02 04:47:28;;;;;;;1.95;1.63;;;23.90;57.20;;;;;;5121276;28;20032;-38
2021/06/02 04:50:25;;;;;;;1.60;1.50;;;23.90;57.20;;;;;;5137613;27;21175;-38
2021/06/02 04:53:28;;;;;;;1.45;1.35;;;23.90;57.30;;;;;;5122965;28;20087;-38
2021/06/02 04:56:19;;;;;;;3.13;1.63;;;23.80;57.30;;;;;;5122672;28;20065;-38
2021/06/02 04:59:23;;;;;;;1.50;1.40;;;23.80;57.30;;;;;;5105320;28;20038;-38
2021/06/02 05:01:54;;;;;;;2.58;1.50;;;23.80;57.40;;;;;;5122882;28;20031;-37
2021/06/02 05:04:42;;;;;;;1.38;1.27;;;23.80;57.40;;;;;;5122746;28;20046;-37
2021/06/02 05:07:45;;;;;;;1.50;1.40;;;23.70;57.30;;;;;;5102537;28;20028;-37
2021/06/02 05:10:29;;;;;;;1.70;1.60;;;23.70;57.40;;;;;;5106920;28;20063;-37
2021/06/02 05:13:20;;;;;;;2.33;1.90;;;23.70;57.40;;;;;;5122694;28;20027;-37
2021/06/02 05:16:05;;;;;;;1.70;1.45;;;23.70;57.40;;;;;;5122701;28;20039;-37
2021/06/02 05:18:45;;;;;;;1.42;1.33;;;23.70;57.40;;;;;;5122522;28;20122;-37
2021/06/02 05:22:07;;;;;;;1.92;1.50;;;23.70;57.50;;;;;;5120885;28;20031;-38
2021/06/02 05:24:36;;;;;;;2.35;1.30;;;23.60;57.40;;;;;;5079189;28;20032;-37
2021/06/02 05:27:15;;;;;;;4.85;1.50;;;23.60;57.50;;;;;;5078195;28;20035;-38
2021/06/02 05:30:00;;;;;;;2.25;1.67;;;23.60;57.50;;;;;;5096660;28;20025;-38
2021/06/02 05:33:03;;;;;;;1.70;1.60;;;23.60;57.60;;;;;;5079782;28;20029;-38
2021/06/02 05:35:41;;;;;;;1.50;1.40;;;23.60;57.60;;;;;;5079319;28;20047;-37
2021/06/02 05:38:35;;;;;;;2.05;1.60;;;23.50;57.60;;;;;;5079306;28;20689;-39
2021/06/02 05:41:16;;;;;;;2.60;1.48;;;23.60;57.70;;;;;;5079565;28;20967;-39
2021/06/02 05:44:09;;;;;;;1.88;1.70;;;23.50;57.60;;;;;;5079092;28;20021;-37
2021/06/02 05:46:41;;;;;;;1.60;1.50;;;23.50;57.60;;;;;;5079386;28;20831;-37
2021/06/02 05:49:35;;;;;;;1.70;1.60;;;23.50;57.70;;;;;;5079286;28;20037;-37
2021/06/02 05:52:17;;;;;;;2.55;1.52;;;23.50;57.80;;;;;;5079088;28;20115;-37
2021/06/02 05:54:58;;;;;;;1.63;1.52;;;23.40;57.70;;;;;;5063009;28;20057;-37
2021/06/02 05:57:52;;;;;;;1.70;1.58;;;23.40;57.80;;;;;;5061922;28;20032;-37
2021/06/02 06:00:39;;;;;;;1.45;1.35;;;23.40;57.80;;;;;;5089358;28;20044;-38
2021/06/02 06:03:11;;;;;;;2.47;1.40;;;23.40;57.80;;;;;;5121813;28;20027;-37
2021/06/02 06:06:01;;;;;;;1.48;1.38;;;23.40;57.80;;;;;;5121981;28;20125;-37
2021/06/02 06:09:05;;;;;;;1.73;1.63;;;23.30;57.80;;;;;;5124987;28;20079;-40
2021/06/02 06:11:55;;;;;;;1.95;1.40;;;23.30;57.80;;;;;;5126039;28;20019;-40
2021/06/02 06:14:28;;;;;;;1.70;1.60;;;23.30;57.80;;;;;;5124588;28;20024;-39
2021/06/02 06:16:57;;;;;;;1.90;1.60;;;23.30;57.90;;;;;;5125835;28;20019;-39
2021/06/02 06:19:51;;;;;;;1.42;1.33;;;23.30;57.90;;;;;;5125769;28;20067;-37
2021/06/02 06:22:30;;;;;;;1.83;1.40;;;23.20;57.90;;;;;;5125894;27;20024;-39
2021/06/02 06:25:24;;;;;;;1.90;1.75;;;23.20;58.00;;;;;;5123807;28;20055;-39
2021/06/02 06:27:57;;;;;;;1.70;1.60;;;23.20;58.00;;;;;;5125650;28;20028;-39
2021/06/02 06:30:32;;;;;;;1.75;1.63;;;23.20;58.00;;;;;;5123019;28;20050;-39
2021/06/02 06:32:59;;;;;;;2.47;1.60;;;23.20;58.00;;;;;;5140803;27;20034;-39
2021/06/02 06:35:28;;;;;;;1.42;1.30;;;23.20;58.10;;;;;;5125939;28;20023;-39
2021/06/02 06:37:56;;;;;;;1.65;1.55;;;23.20;58.10;;;;;;5135135;27;20047;-39
2021/06/02 06:40:28;;;;;;;1.70;1.60;;;23.10;58.00;;;;;;5128179;27;20833;-39
2021/06/02 06:42:56;;;;;;;1.73;1.63;;;23.10;58.50;;;;;;5130814;27;20027;-39
2021/06/02 06:45:32;;;;;;;2.03;1.80;;;23.10;58.10;;;;;;5141311;27;20016;-41
2021/06/02 06:47:58;;;;;;;2.03;1.50;;;23.10;58.10;;;;;;5140237;27;20088;-40
2021/06/02 06:50:24;;;;;;;1.43;1.33;;;23.10;58.10;;;;;;5140761;27;20023;-39
2021/06/02 06:52:53;;;;;;;1.65;1.55;;;23.10;58.20;;;;;;5123423;28;20027;-40
2021/06/02 06:55:20;;;;;;;2.03;1.48;;;23.10;58.20;;;;;;5123730;28;20034;-39
2021/06/02 06:57:46;;;;;;;1.88;1.50;;;23.10;58.30;;;;;;5123593;28;20042;-39
2021/06/02 07:00:13;;;;;;;2.25;1.70;;;23.00;58.30;;;;;;5124857;28;20023;-40
2021/06/02 07:02:41;;;;;;;1.80;1.60;;;23.00;58.30;;;;;;5124826;28;20031;-37
2021/06/02 07:05:08;;;;;;;1.48;1.38;;;23.00;58.30;;;;;;5123686;28;20052;-40
2021/06/02 07:07:35;;;;;;;2.27;1.80;;;23.00;58.30;;;;;;5123421;28;20027;-39
2021/06/02 07:10:03;;;;;;;1.80;1.70;;;23.00;58.40;;;;;;5106294;28;20053;-40
2021/06/02 07:12:30;;;;;;;1.65;1.55;;;22.90;58.30;;;;;;5123382;28;20027;-40
2021/06/02 07:14:56;;;;;;;1.83;1.60;;;23.00;58.40;;;;;;5123629;28;20096;-40
2021/06/02 07:17:22;;;;;;;1.90;1.77;;;22.90;58.30;;;;;;5123277;28;20046;-39
2021/06/02 07:19:49;;;;;;;1.50;1.40;;;22.90;58.20;;;;;;5122872;28;20026;-40
2021/06/02 07:22:20;;;;;;;1.75;1.48;;;22.90;58.30;;;;;;5121576;28;20081;-40
2021/06/02 07:24:47;;;;;;;1.77;1.67;;;22.90;58.30;;;;;;5122197;28;20046;-39
2021/06/02 07:27:16;;;;;;;3.75;1.75;;;22.90;58.30;;;;;;5122582;28;20028;-39
2021/06/02 07:29:42;;;;;;;3.00;1.58;;;22.80;58.30;;;;;;5104644;28;20033;-38
2021/06/02 07:32:09;;;;;;;1.80;1.70;;;22.80;58.30;;;;;;5123468;28;20099;-39
2021/06/02 07:34:35;;;;;;;1.52;1.42;;;22.80;58.30;;;;;;5105361;28;20059;-39
2021/06/02 07:37:01;;;;;;;1.75;1.60;;;22.80;58.30;;;;;;5120504;28;20035;-39
2021/06/02 07:39:27;;;;;;;1.80;1.70;;;22.80;58.40;;;;;;5117841;28;20045;-39
2021/06/02 07:41:54;;;;;;;1.40;1.30;;;22.80;58.40;;;;;;5123468;28;20092;-39
2021/06/02 07:44:20;;;;;;;1.75;1.42;;;22.80;58.40;;;;;;5123771;28;20028;-39
2021/06/02 07:46:46;;;;;;;1.75;1.40;;;22.70;58.40;;;;;;5123411;28;20032;-39
2021/06/02 07:49:12;;;;;;;1.73;1.63;;;22.70;58.40;;;;;;5121671;28;20019;-39
2021/06/02 07:51:38;;;;;;;1.52;1.42;;;22.70;58.40;;;;;;5123101;28;20034;-39
2021/06/02 07:54:06;;;;;;;1.40;1.30;;;22.70;58.40;;;;;;5123203;28;20031;-39
2021/06/02 07:56:33;;;;;;;1.50;1.40;;;22.60;58.50;;;;;;5123476;28;20044;-39
2021/06/02 07:58:59;;;;;;;;;;;22.70;58.50;;;;;;5119668;28;20049;-39
2021/06/02 08:01:25;;;;;;;1.70;1.60;;;22.70;58.50;;;;;;5122543;28;20655;-38
2021/06/02 08:03:51;;;;;;;1.50;1.40;;;22.60;58.50;;;;;;5123184;28;20093;-39
2021/06/02 08:06:17;;;;;;;1.67;1.58;;;22.60;58.50;;;;;;5123366;28;20031;-39
2021/06/02 08:08:43;;;;;;;1.73;1.60;;;22.60;58.60;;;;;;5123246;28;20046;-39
2021/06/02 08:11:10;;;;;;;1.58;1.48;;;22.60;58.60;;;;;;5122016;28;20039;-39
2021/06/02 08:13:36;;;;;;;2.00;1.60;;;22.60;58.60;;;;;;5123377;28;20024;-39
2021/06/02 08:16:03;;;;;;;1.60;1.40;;;22.50;58.60;;;;;;5122974;28;20392;-40
2021/06/02 08:18:29;;;;;;;1.50;1.40;;;22.50;58.60;;;;;;5123104;28;20028;-39
2021/06/02 08:20:56;;;;;;;1.90;1.70;;;22.50;58.60;;;;;;5122283;28;20028;-39
2021/06/02 08:23:22;;;;;;;1.35;1.25;;;22.50;58.60;;;;;;5122991;28;20058;-39
2021/06/02 08:25:50;;;;;;;1.40;1.30;;;22.50;58.60;;;;;;5122940;27;20084;-39
2021/06/02 08:28:19;;;;;;;1.48;1.35;;;22.50;58.60;;;;;;5122847;28;20054;-39
2021/06/02 08:30:45;;;;;;;2.03;1.40;;;22.50;58.70;;;;;;5121658;28;20024;-39
2021/06/02 08:33:11;;;;;;;2.00;1.77;;;22.40;58.70;;;;;;5122288;28;20032;-39
2021/06/02 08:35:38;;;;;;;1.38;1.27;;;22.40;58.70;;;;;;5118767;28;20116;-39
2021/06/02 08:38:05;;;;;;;1.52;1.40;;;22.40;58.80;;;;;;5122202;28;20078;-39
2021/06/02 08:40:31;;;;;;;1.83;1.20;;;22.40;58.80;;;;;;5121803;28;20022;-39
2021/06/02 08:42:57;;;;;;;1.40;1.30;;;22.40;58.80;;;;;;5122692;28;20087;-39
2021/06/02 08:45:23;;;;;;;1.40;1.30;;;22.40;58.80;;;;;;5122339;28;20032;-39
2021/06/02 08:47:49;;;;;;;1.30;1.10;;;22.40;58.80;;;;;;5122632;28;20049;-39
2021/06/02 08:50:19;;;;;;;1.50;1.40;;;22.40;58.80;;;;;;5122124;28;20034;-39
2021/06/02 08:52:45;;;;;;;1.30;1.20;;;22.40;58.80;;;;;;5122551;28;20031;-39
2021/06/02 08:55:14;;;;;;;1.30;1.20;;;22.30;58.80;;;;;;5122579;28;20031;-39
2021/06/02 08:57:44;;;;;;;1.60;1.50;;;22.30;58.80;;;;;;5122331;28;20024;-39
2021/06/02 09:00:12;;;;;;;1.27;1.17;;;22.30;58.90;;;;;;5121424;28;20020;-39
2021/06/02 09:02:39;;;;;;;1.52;1.30;;;22.30;58.90;;;;;;5122134;28;20043;-39
2021/06/02 09:05:06;;;;;;;1.67;1.58;;;22.30;58.90;;;;;;5122099;28;20054;-39
2021/06/02 09:07:33;;;;;;;2.17;1.60;;;22.30;59.50;;;;;;5122245;28;20024;-38
2021/06/02 09:10:03;;;;;;;1.45;1.35;;;22.30;58.90;;;;;;5120719;28;20024;-39
2021/06/02 09:12:58;;;;;;;1.83;1.35;;;22.30;58.90;;;;;;5120813;28;20102;-39
2021/06/02 09:15:24;;;;;;;1.40;1.30;;;22.20;58.90;;;;;;5120856;28;20027;-39
2021/06/02 09:17:59;;;;;;;1.50;1.40;;;22.20;58.90;;;;;;5120864;28;20035;-39
2021/06/02 09:20:34;;;;;;;2.45;1.23;;;22.20;59.00;;;;;;5118099;28;20028;-39
2021/06/02 09:23:00;;;;;;;1.63;1.50;;;22.20;59.00;;;;;;5122184;28;20102;-39
2021/06/02 09:25:27;;;;;;;1.55;1.45;;;22.20;59.10;;;;;;5122125;28;20019;-39
2021/06/02 09:27:57;;;;;;;1.90;1.40;;;22.10;59.10;;;;;;5121798;28;20043;-39
2021/06/02 09:30:25;;;;;;;1.58;1.48;;;22.10;59.10;;;;;;5119956;28;20024;-39
2021/06/02 09:32:59;;;;;;;1.42;1.30;;;22.10;59.10;;;;;;5120906;28;20038;-39
2021/06/02 09:35:35;;;;;;;1.48;1.38;;;22.10;59.10;;;;;;5119541;28;20110;-39
2021/06/02 09:38:02;;;;;;;3.05;1.50;;;22.10;59.10;;;;;;5118459;28;20065;-39
2021/06/02 09:40:30;;;;;;;1.42;1.30;;;22.10;59.20;;;;;;5120429;28;20023;-39
2021/06/02 09:42:56;;;;;;;1.52;1.42;;;22.10;59.20;;;;;;5122474;28;20039;-39
2021/06/02 09:45:23;;;;;;;1.40;1.30;;;22.10;59.20;;;;;;5125855;28;20027;-39
2021/06/02 09:48:07;;;;;;;1.58;1.48;;;22.10;59.20;;;;;;5125899;28;20027;-40
2021/06/02 09:50:36;;;;;;;1.52;1.27;;;22.00;59.20;;;;;;5122191;28;20032;-39
2021/06/02 09:53:03;;;;;;;1.40;1.30;;;22.00;59.20;;;;;;5125833;28;20120;-39
2021/06/02 09:55:33;;;;;;;1.40;1.30;;;22.00;59.30;;;;;;5125629;28;20095;-39
2021/06/02 09:58:02;;;;;;;1.40;1.30;;;22.00;59.20;;;;;;5125862;28;20031;-39
2021/06/02 10:00:29;;;;;;;1.40;1.30;;;22.00;59.30;;;;;;5125149;28;20023;-39
2021/06/02 10:03:14;;;;;;;1.65;1.40;;;22.00;59.30;;;;;;5141360;27;20028;-39
2021/06/02 10:05:48;;;;;;;1.65;1.23;;;22.00;59.30;;;;;;5124719;27;20047;-39
2021/06/02 10:08:29;;;;;;;1.30;1.20;;;22.00;59.30;;;;;;5125634;28;20484;-39
2021/06/02 10:10:56;;;;;;;1.40;1.30;;;21.90;59.30;;;;;;5123462;28;20035;-39
2021/06/02 10:13:23;;;;;;;1.65;1.55;;;21.90;59.30;;;;;;5125511;28;20045;-39
2021/06/02 10:15:49;;;;;;;1.60;1.17;;;21.90;59.40;;;;;;5125163;28;20500;-39
2021/06/02 10:18:29;;;;;;;1.60;1.40;;;21.90;59.30;;;;;;5123848;28;20039;-39
2021/06/02 10:21:12;;;;;;;1.60;1.50;;;21.90;59.40;;;;;;5123807;28;20034;-39
2021/06/02 10:23:43;;;;;;;1.30;1.20;;;21.90;59.40;;;;;;5121576;28;20024;-39
2021/06/02 10:26:17;;;;;;;1.45;1.35;;;21.80;59.40;;;;;;5121221;28;20024;-39
2021/06/02 10:28:45;;;;;;;1.58;1.40;;;21.80;59.50;;;;;;5120616;28;20032;-39
2021/06/02 10:31:12;;;;;;;1.48;1.38;;;21.80;59.50;;;;;;5122673;28;20042;-39
2021/06/02 10:33:38;;;;;;;1.40;1.30;;;21.80;59.50;;;;;;5124795;28;20091;-39
2021/06/02 10:36:06;;;;;;;1.50;1.30;;;21.80;59.50;;;;;;5125023;28;20030;-39
2021/06/02 10:38:43;;;;;;;1.83;1.40;;;21.80;59.60;;;;;;5125530;28;20035;-39
2021/06/02 10:41:09;;;;;;;1.60;1.50;;;21.80;59.50;;;;;;5122818;28;20020;-39
2021/06/02 10:43:41;;;;;;;1.90;1.50;;;21.80;59.60;;;;;;5107039;28;20347;-39
2021/06/02 10:46:08;;;;;;;1.60;1.40;;;21.80;59.60;;;;;;5124092;28;20793;-39
2021/06/02 10:48:47;;;;;;;;;;;21.80;59.60;;;;;;5124568;28;20042;-39
2021/06/02 10:51:26;;;;;;;1.40;1.30;;;21.70;59.50;;;;;;5141468;27;19908;-39
2021/06/02 10:54:19;;;;;;;1.70;1.35;;;21.70;59.60;;;;;;5124537;27;20027;-39
2021/06/02 10:56:57;;;;;;;1.58;1.33;;;21.70;59.60;;;;;;5125061;28;20061;-39
2021/06/02 10:59:35;;;;;;;1.67;1.33;;;21.70;59.60;;;;;;5125355;28;20400;-39
2021/06/02 11:02:03;;;;;;;1.45;1.25;;;21.70;59.60;;;;;;5123496;28;20019;-39
2021/06/02 11:04:41;;;;;;;1.55;1.45;;;21.70;59.70;;;;;;5124420;28;20060;-39
2021/06/02 11:07:15;;;;;;;1.42;1.33;;;21.70;59.70;;;;;;5124680;28;20104;-39
2021/06/02 11:10:00;;;;;;;1.75;1.40;;;21.70;59.70;;;;;;5125243;28;20027;-39
2021/06/02 11:12:50;;;;;;;1.23;1.13;;;21.60;59.70;;;;;;5121085;28;20127;-39
2021/06/02 11:15:31;;;;;;;1.77;1.45;;;21.60;59.70;;;;;;5120048;28;20031;-39
2021/06/02 11:18:10;;;;;;;1.30;1.20;;;21.60;59.70;;;;;;5121332;28;20425;-39
2021/06/02 11:20:54;;;;;;;1.33;1.23;;;21.60;59.70;;;;;;5120174;28;20027;-39
2021/06/02 11:23:47;;;;;;;1.77;1.40;;;21.60;59.70;;;;;;5127053;27;20057;-39
2021/06/02 11:26:26;;;;;;;1.92;1.40;;;21.60;59.70;;;;;;5119831;28;20056;-39
2021/06/02 11:28:53;;;;;;;1.60;1.42;;;21.60;59.80;;;;;;5121200;28;20028;-39
2021/06/02 11:31:26;;;;;;;1.80;1.70;;;21.60;59.80;;;;;;5123461;28;20036;-39
2021/06/02 11:33:53;;;;;;;1.70;1.60;;;21.60;59.80;;;;;;5122336;28;20101;-39
2021/06/02 11:36:19;;;;;;;1.80;1.33;;;21.60;59.70;;;;;;5123601;28;20034;-38
2021/06/02 11:38:45;;;;;;;1.98;1.33;;;21.60;59.80;;;;;;5121934;28;20049;-39
2021/06/02 11:41:13;;;;;;;1.35;1.25;;;21.60;59.80;;;;;;5123598;27;20027;-39
2021/06/02 11:43:39;;;;;;;1.40;1.30;;;21.60;59.80;;;;;;5122573;28;20062;-38
2021/06/02 11:46:06;;;;;;;1.60;1.20;;;21.60;59.90;;;;;;5125365;27;20138;-39
2021/06/02 11:48:33;;;;;;;1.33;1.23;;;21.60;59.90;;;;;;5121578;28;20027;-39
2021/06/02 11:51:04;;;;;;;1.42;1.20;;;21.50;59.80;;;;;;5123127;28;20079;-39
2021/06/02 11:53:40;;;;;;;1.48;1.08;;;21.50;59.90;;;;;;5122798;28;20031;-39
2021/06/02 11:56:07;;;;;;;1.40;1.30;;;21.50;59.90;;;;;;5123428;28;20038;-39
2021/06/02 11:58:33;;;;;;;1.40;1.30;;;21.50;60.70;;;;;;5122270;28;20042;-39
2021/06/02 12:00:59;;;;;;;1.30;1.20;;;21.50;59.90;;;;;;5122853;27;20037;-39
2021/06/02 12:03:25;;;;;;;1.40;1.30;;;21.50;60.00;;;;;;5123392;28;20091;-39
2021/06/02 12:05:53;;;;;;;1.40;1.30;;;21.50;60.00;;;;;;5120940;28;20044;-39
2021/06/02 12:08:19;;;;;;;1.75;1.20;;;21.50;60.00;;;;;;5122699;28;20027;-39
2021/06/02 12:10:49;;;;;;;1.40;1.30;;;21.50;60.00;;;;;;5123083;28;20043;-39
2021/06/02 12:13:21;;;;;;;1.55;1.17;;;21.50;60.10;;;;;;5123192;28;20036;-39
2021/06/02 12:16:17;;;;;;;1.10;1.02;;;21.50;60.10;;;;;;5121206;28;20053;-38
2021/06/02 12:18:45;;;;;;;1.50;1.40;;;21.50;60.10;;;;;;5117982;28;20039;-39
2021/06/02 12:21:13;;;;;;;1.50;1.27;;;21.50;60.20;;;;;;5123166;28;20053;-39
2021/06/02 12:23:59;;;;;;;1.40;1.30;;;21.50;60.30;;;;;;5121381;28;20019;-39
2021/06/02 12:26:27;;;;;;;1.67;1.30;;;21.50;60.30;;;;;;5120726;28;20023;-39
2021/06/02 12:28:54;;;;;;;1.50;1.40;;;21.50;60.30;;;;;;5122285;28;20028;-39
2021/06/02 12:32:00;;;;;;;1.50;1.20;;;21.50;60.30;;;;;;5122459;28;20031;-39
2021/06/02 12:34:31;;;;;;;2.25;1.10;;;21.50;60.30;;;;;;5120983;28;20046;-39
2021/06/02 12:37:02;;;;;;;1.38;1.27;;;21.50;60.30;;;;;;5121340;28;20106;-39
2021/06/02 12:39:32;;;;;;;2.28;1.20;;;21.50;60.40;;;;;;5122295;28;20131;-39
2021/06/02 12:42:00;;;;;;;1.13;1.02;;;21.50;60.30;;;;;;5120976;28;20038;-39
2021/06/02 12:44:30;;;;;;;1.15;1.00;;;21.50;60.30;;;;;;5121808;28;20665;-39
2021/06/02 12:47:04;;;;;;;1.65;1.40;;;21.50;60.30;;;;;;5122135;28;20027;-39
2021/06/02 12:49:31;;;;;;;1.77;1.20;;;21.50;60.30;;;;;;5121472;28;20035;-39
2021/06/02 12:51:57;;;;;;;1.23;0.90;;;21.50;60.30;;;;;;5120931;28;20024;-39
2021/06/02 12:54:28;;;;;;;1.33;1.23;;;21.50;60.30;;;;;;5121797;28;20396;-40
2021/06/02 12:56:54;;;;;;;1.45;1.30;;;21.50;60.30;;;;;;5119733;28;20032;-39
2021/06/02 12:59:25;;;;;;;1.50;1.23;;;21.50;60.30;;;;;;5121940;28;20055;-39
2021/06/02 13:01:52;;;;;;;1.33;1.10;;;21.50;60.20;;;;;;5122018;28;20032;-39
2021/06/02 13:04:19;;;;;;;1.30;1.10;;;21.50;60.20;;;;;;5120308;28;20058;-39
2021/06/02 13:06:52;;;;;;;1.50;1.00;;;21.50;61.00;;;;;;5120504;28;20049;-39
2021/06/02 13:09:20;;;;;;;1.10;1.00;;;21.50;60.30;;;;;;5119136;28;20104;-39
2021/06/02 13:11:46;;;;;;;1.60;1.30;;;21.50;60.30;;;;;;5134008;28;20027;-40
2021/06/02 13:14:12;;;;;;;1.30;1.20;;;21.50;60.30;;;;;;5120591;28;20050;-39
2021/06/02 13:16:51;;;;;;;1.55;1.20;;;21.50;60.30;;;;;;5121761;28;20024;-39
2021/06/02 13:19:17;;;;;;;2.00;1.23;;;21.50;60.40;;;;;;5122586;28;20126;-39
2021/06/02 13:21:51;;;;;;;2.10;1.33;;;21.50;60.50;;;;;;5125989;28;20480;-39
2021/06/02 13:24:19;;;;;;;1.27;1.17;;;21.60;60.70;;;;;;5126084;28;20038;-39
2021/06/02 13:26:47;;;;;;;2.05;1.20;;;21.60;60.80;;;;;;5125741;28;20131;-39